createdAt,value
2023-12-30T00:00:32.651Z,69.58
2023-12-30T00:03:03.790Z,69.40
2023-12-30T00:05:33.998Z,69.53
2023-12-30T00:08:04.657Z,69.29
2023-12-30T00:10:34.608Z,69.62
2023-12-30T00:13:05.098Z,69.47
2023-12-30T00:15:35.213Z,69.65
2023-12-30T00:18:05.729Z,69.56
2023-12-30T00:20:35.786Z,69.46
2023-12-30T00:23:06.082Z,69.39
2023-12-30T00:25:36.307Z,69.42
2023-12-30T00:28:07.355Z,69.04
2023-12-30T00:30:37.514Z,69.33
2023-12-30T00:33:08.252Z,69.07
2023-12-30T00:35:38.396Z,69.22
2023-12-30T00:38:08.843Z,69.21
2023-12-30T00:40:38.980Z,69.64
2023-12-30T00:43:09.377Z,69.65
2023-12-30T00:45:40.030Z,69.58
2023-12-30T00:48:10.508Z,69.28
2023-12-30T00:50:40.719Z,69.50
2023-12-30T00:53:11.189Z,69.66
2023-12-30T00:55:41.252Z,69.52
2023-12-30T00:58:11.896Z,69.66
2023-12-30T01:00:42.064Z,69.54
2023-12-30T01:03:12.442Z,69.51
2023-12-30T01:05:43.040Z,69.11
2023-12-30T01:08:13.628Z,69.09
2023-12-30T01:10:43.740Z,69.04
2023-12-30T01:13:14.199Z,69.56
2023-12-30T01:15:44.263Z,69.63
2023-12-30T01:18:15.145Z,69.54
2023-12-30T01:20:45.397Z,69.36
2023-12-30T01:23:16.098Z,69.65
2023-12-30T01:25:46.069Z,69.58
2023-12-30T01:28:16.527Z,69.54
2023-12-30T01:30:46.454Z,69.41
2023-12-30T01:33:17.089Z,69.54
2023-12-30T01:35:47.243Z,69.62
2023-12-30T01:38:18.312Z,69.91
2023-12-30T01:40:48.328Z,69.66
2023-12-30T01:43:28.690Z,69.80
2023-12-30T01:46:04.730Z,69.66
2023-12-30T01:48:36.251Z,69.85
2023-12-30T01:51:23.964Z,69.58
2023-12-30T01:53:56.874Z,69.78
2023-12-30T01:56:28.708Z,70.15
2023-12-30T01:59:01.088Z,69.90
2023-12-30T02:01:31.251Z,70.05
2023-12-30T02:04:02.166Z,70.17
2023-12-30T02:06:32.195Z,70.35
2023-12-30T02:09:03.643Z,70.30
2023-12-30T02:11:34.594Z,70.37
2023-12-30T02:14:04.987Z,70.02
2023-12-30T02:16:34.955Z,70.05
2023-12-30T02:19:05.445Z,70.35
2023-12-30T02:21:35.720Z,70.39
2023-12-30T02:24:06.214Z,70.41
2023-12-30T02:26:36.446Z,70.20
2023-12-30T02:29:10.386Z,69.84
2023-12-30T02:31:47.149Z,70.17
2023-12-30T02:34:19.124Z,70.09
2023-12-30T02:36:49.560Z,69.71
2023-12-30T02:39:20.143Z,69.76
2023-12-30T02:41:50.380Z,69.65
2023-12-30T02:44:22.378Z,69.96
2023-12-30T02:46:52.548Z,69.82
2023-12-30T02:49:23.025Z,70.01
2023-12-30T02:51:55.213Z,70.22
2023-12-30T02:54:25.752Z,70.92
2023-12-30T02:56:57.161Z,70.97
2023-12-30T02:59:27.358Z,70.95
2023-12-30T03:01:57.594Z,71.36
2023-12-30T03:04:28.130Z,70.93
2023-12-30T03:06:58.280Z,71.18
2023-12-30T03:09:28.687Z,71.21
2023-12-30T03:11:58.680Z,70.75
2023-12-30T03:14:29.355Z,70.76
2023-12-30T03:16:59.515Z,70.86
2023-12-30T03:19:29.934Z,70.68
2023-12-30T03:22:00.169Z,70.67
2023-12-30T03:24:30.678Z,70.50
2023-12-30T03:27:01.119Z,70.59
2023-12-30T03:29:31.445Z,70.67
2023-12-30T03:32:01.625Z,70.64
2023-12-30T03:34:31.942Z,70.76
2023-12-30T03:37:02.264Z,70.75
2023-12-30T03:39:32.645Z,70.83
2023-12-30T03:42:02.962Z,70.86
2023-12-30T03:44:33.892Z,70.69
2023-12-30T03:47:04.067Z,70.72
2023-12-30T03:49:35.026Z,70.63
2023-12-30T03:52:05.382Z,70.87
2023-12-30T03:54:36.719Z,70.83
2023-12-30T03:57:06.921Z,70.35
2023-12-30T03:59:38.195Z,70.61
2023-12-30T04:02:08.214Z,70.31
2023-12-30T04:04:38.789Z,70.43
2023-12-30T04:07:08.947Z,70.39
2023-12-30T04:09:39.389Z,70.62
2023-12-30T04:12:10.785Z,70.08
2023-12-30T04:14:41.715Z,70.13
2023-12-30T04:17:11.702Z,70.69
2023-12-30T04:19:42.313Z,70.08
2023-12-30T04:22:12.619Z,70.48
2023-12-30T04:24:42.956Z,70.78
2023-12-30T04:27:12.892Z,70.95
2023-12-30T04:29:43.363Z,71.30
2023-12-30T04:32:13.368Z,73.02
2023-12-30T04:34:43.824Z,71.98
2023-12-30T04:37:15.010Z,71.68
2023-12-30T04:39:45.438Z,71.77
2023-12-30T04:42:16.277Z,72.11
2023-12-30T04:44:46.501Z,72.39
2023-12-30T04:47:16.515Z,72.02
2023-12-30T04:49:46.966Z,71.42
2023-12-30T04:52:17.007Z,71.21
2023-12-30T04:54:47.608Z,71.71
2023-12-30T04:57:17.854Z,71.33
2023-12-30T04:59:48.299Z,71.66
2023-12-30T05:02:18.376Z,71.91
2023-12-30T05:04:48.972Z,71.61
2023-12-30T05:07:19.102Z,71.84
2023-12-30T05:09:51.325Z,71.49
2023-12-30T05:12:21.317Z,71.75
2023-12-30T05:14:51.898Z,71.75
2023-12-30T05:17:22.032Z,71.97
2023-12-30T05:19:52.958Z,71.71
2023-12-30T05:22:23.147Z,71.71
2023-12-30T05:24:53.675Z,71.20
2023-12-30T05:27:23.815Z,71.23
2023-12-30T05:29:54.086Z,71.19
2023-12-30T05:32:24.347Z,70.93
2023-12-30T05:34:54.922Z,70.78
2023-12-30T05:37:25.139Z,70.63
2023-12-30T05:39:55.573Z,70.88
2023-12-30T05:42:25.957Z,70.72
2023-12-30T05:44:56.453Z,70.65
2023-12-30T05:47:26.546Z,70.94
2023-12-30T05:49:57.107Z,71.00
2023-12-30T05:52:27.384Z,70.64
2023-12-30T05:54:57.990Z,70.83
2023-12-30T05:57:28.469Z,70.74
2023-12-30T05:59:58.965Z,70.49
2023-12-30T06:02:29.147Z,70.44
2023-12-30T06:04:59.752Z,70.51
2023-12-30T06:07:29.963Z,70.78
2023-12-30T06:10:00.499Z,70.49
2023-12-30T06:12:30.634Z,70.66
2023-12-30T06:15:01.053Z,70.60
2023-12-30T06:17:31.626Z,70.47
2023-12-30T06:20:02.110Z,70.56
2023-12-30T06:22:32.667Z,70.15
2023-12-30T06:25:04.940Z,70.31
2023-12-30T06:27:35.378Z,70.04
2023-12-30T06:30:06.572Z,70.20
2023-12-30T06:32:36.848Z,70.05
2023-12-30T06:35:07.550Z,69.97
2023-12-30T06:37:37.792Z,69.90
2023-12-30T06:40:09.179Z,70.15
2023-12-30T06:42:39.747Z,70.12
2023-12-30T06:45:10.558Z,69.88
2023-12-30T06:47:42.154Z,69.93
2023-12-30T06:50:13.541Z,69.99
2023-12-30T06:52:43.714Z,70.04
2023-12-30T06:55:20.923Z,69.69
2023-12-30T06:57:55.876Z,69.60
2023-12-30T07:00:26.392Z,69.66
2023-12-30T07:02:56.371Z,69.70
2023-12-30T07:05:26.965Z,69.92
2023-12-30T07:07:57.128Z,70.21
2023-12-30T07:10:27.633Z,70.16
2023-12-30T07:12:57.573Z,69.83
2023-12-30T07:15:28.077Z,69.88
2023-12-30T07:17:58.128Z,69.95
2023-12-30T07:20:28.547Z,70.16
2023-12-30T07:22:59.393Z,70.57
2023-12-30T07:25:30.011Z,70.21
2023-12-30T07:28:00.386Z,70.09
2023-12-30T07:30:31.013Z,70.33
2023-12-30T07:33:02.948Z,70.07
2023-12-30T07:35:33.400Z,70.26
2023-12-30T07:38:03.599Z,70.11
2023-12-30T07:40:34.047Z,69.88
2023-12-30T07:43:05.410Z,69.84
2023-12-30T07:45:36.508Z,69.78
2023-12-30T07:48:06.788Z,69.48
2023-12-30T07:50:37.031Z,69.82
2023-12-30T07:53:07.335Z,69.91
2023-12-30T07:55:37.861Z,69.85
2023-12-30T07:58:08.131Z,70.08
2023-12-30T08:00:39.307Z,69.90
2023-12-30T08:03:09.948Z,70.07
2023-12-30T08:05:40.858Z,70.09
2023-12-30T08:08:13.454Z,69.72
2023-12-30T08:10:43.706Z,69.87
2023-12-30T08:13:13.907Z,69.71
2023-12-30T08:15:44.237Z,69.72
2023-12-30T08:18:14.527Z,69.60
2023-12-30T08:20:44.906Z,69.89
2023-12-30T08:23:15.130Z,69.53
2023-12-30T08:25:45.742Z,69.19
2023-12-30T08:28:15.910Z,69.54
2023-12-30T08:30:47.689Z,69.53
2023-12-30T08:33:18.096Z,69.56
2023-12-30T08:35:50.482Z,69.43
2023-12-30T08:38:20.879Z,69.44
2023-12-30T08:40:51.930Z,69.25
2023-12-30T08:43:22.185Z,69.53
2023-12-30T08:45:52.850Z,69.40
2023-12-30T08:48:23.104Z,69.26
2023-12-30T08:50:53.698Z,69.13
2023-12-30T08:53:26.515Z,69.20
2023-12-30T08:55:57.052Z,69.26
2023-12-30T08:58:27.208Z,69.24
2023-12-30T09:00:57.837Z,69.11
2023-12-30T09:03:27.969Z,69.00
2023-12-30T09:05:58.464Z,69.27
2023-12-30T09:08:28.658Z,69.41
2023-12-30T09:10:59.813Z,69.17
2023-12-30T09:13:30.094Z,69.06
2023-12-30T09:16:00.536Z,68.78
2023-12-30T09:18:30.955Z,68.66
2023-12-30T09:21:01.157Z,68.92
2023-12-30T09:23:31.897Z,68.89
2023-12-30T09:26:02.306Z,68.90
2023-12-30T09:28:32.255Z,69.10
2023-12-30T09:31:02.633Z,68.72
2023-12-30T09:33:33.091Z,68.88
2023-12-30T09:36:03.946Z,68.70
2023-12-30T09:38:34.003Z,68.62
2023-12-30T09:41:04.411Z,68.80
2023-12-30T09:43:34.843Z,68.68
2023-12-30T09:46:06.208Z,68.92
2023-12-30T09:48:37.799Z,69.00
2023-12-30T09:51:08.703Z,68.89
2023-12-30T09:53:39.560Z,69.21
2023-12-30T09:56:13.017Z,69.17
2023-12-30T09:58:45.007Z,69.89
2023-12-30T10:01:15.794Z,69.71
2023-12-30T10:03:46.132Z,70.01
2023-12-30T10:06:21.503Z,70.51
2023-12-30T10:08:51.880Z,70.19
2023-12-30T10:11:22.090Z,70.97
2023-12-30T10:13:55.634Z,70.94
2023-12-30T10:16:26.391Z,71.03
2023-12-30T10:18:57.989Z,71.07
2023-12-30T10:21:29.495Z,71.35
2023-12-30T10:24:05.496Z,71.77
2023-12-30T10:26:38.625Z,71.60
2023-12-30T10:29:09.591Z,71.76
2023-12-30T10:31:40.563Z,72.03
2023-12-30T10:34:10.880Z,72.22
2023-12-30T10:36:41.786Z,72.42
2023-12-30T10:39:16.409Z,72.84
2023-12-30T10:41:47.053Z,72.71
2023-12-30T10:44:17.603Z,72.60
2023-12-30T10:46:50.799Z,73.00
2023-12-30T10:49:23.223Z,73.46
2023-12-30T10:51:55.766Z,73.35
2023-12-30T10:54:40.753Z,73.26
2023-12-30T10:57:16.168Z,73.56
2023-12-30T10:59:50.829Z,72.95
2023-12-30T11:02:21.710Z,73.11
2023-12-30T11:04:54.177Z,72.86
2023-12-30T11:07:28.016Z,72.83
2023-12-30T11:09:58.499Z,73.09
2023-12-30T11:12:31.947Z,72.61
2023-12-30T11:15:02.124Z,72.44
2023-12-30T11:17:36.808Z,72.08
2023-12-30T11:20:24.281Z,71.57
2023-12-30T11:22:58.793Z,71.36
2023-12-30T11:25:39.120Z,70.90
2023-12-30T11:28:27.402Z,70.80
2023-12-30T11:31:00.369Z,70.65
2023-12-30T11:33:30.912Z,70.11
2023-12-30T11:36:04.609Z,70.58
2023-12-30T11:38:36.975Z,70.00
2023-12-30T11:41:07.220Z,69.78
2023-12-30T11:43:37.537Z,70.14
2023-12-30T11:46:07.951Z,69.89
2023-12-30T11:48:38.282Z,69.86
2023-12-30T11:51:08.602Z,69.61
2023-12-30T11:53:39.004Z,70.04
2023-12-30T11:56:09.951Z,69.91
2023-12-30T11:58:41.725Z,69.48
2023-12-30T12:01:13.127Z,69.53
2023-12-30T12:03:43.602Z,69.29
2023-12-30T12:06:14.682Z,69.84
2023-12-30T12:08:45.544Z,69.63
2023-12-30T12:11:15.899Z,69.67
2023-12-30T12:13:47.754Z,69.98
2023-12-30T12:16:19.752Z,69.42
2023-12-30T12:18:50.472Z,69.68
2023-12-30T12:21:20.701Z,70.10
2023-12-30T12:23:51.155Z,69.20
2023-12-30T12:26:22.846Z,68.88
2023-12-30T12:28:55.462Z,69.19
2023-12-30T12:31:31.982Z,69.52
2023-12-30T12:34:24.005Z,69.56
2023-12-30T12:36:55.089Z,69.10
2023-12-30T12:39:26.464Z,69.25
2023-12-30T12:41:56.456Z,69.45
2023-12-30T12:44:26.710Z,69.04
2023-12-30T12:46:57.001Z,69.04
2023-12-30T12:49:27.626Z,68.50
2023-12-30T12:51:57.641Z,68.72
2023-12-30T12:54:27.999Z,69.20
2023-12-30T12:56:58.441Z,69.23
2023-12-30T12:59:29.047Z,68.52
2023-12-30T13:02:00.016Z,68.51
2023-12-30T13:04:30.916Z,68.00
2023-12-30T13:07:01.139Z,68.39
2023-12-30T13:09:36.401Z,68.34
2023-12-30T13:12:06.941Z,68.02
2023-12-30T13:14:37.620Z,67.90
2023-12-30T13:17:13.234Z,68.07
2023-12-30T13:19:45.244Z,67.71
2023-12-30T13:22:15.922Z,67.91
2023-12-30T13:24:46.387Z,67.75
2023-12-30T13:27:17.092Z,67.72
2023-12-30T13:29:47.378Z,67.51
2023-12-30T13:32:17.943Z,67.40
2023-12-30T13:34:52.327Z,67.25
2023-12-30T13:37:23.864Z,67.56
2023-12-30T13:39:58.807Z,67.62
2023-12-30T13:42:28.977Z,67.38
2023-12-30T13:45:01.975Z,67.43
2023-12-30T13:47:41.543Z,67.54
2023-12-30T13:50:19.815Z,67.22
2023-12-30T13:52:51.729Z,67.32
2023-12-30T13:55:22.809Z,67.18
2023-12-30T13:57:54.431Z,66.89
2023-12-30T14:00:24.673Z,67.10
2023-12-30T14:02:55.610Z,66.97
2023-12-30T14:05:36.903Z,66.84
2023-12-30T14:08:18.177Z,67.18
2023-12-30T14:10:50.194Z,67.11
2023-12-30T14:13:23.984Z,67.35
2023-12-30T14:15:54.738Z,66.91
2023-12-30T14:18:25.103Z,67.19
2023-12-30T14:20:55.625Z,67.01
2023-12-30T14:23:25.691Z,66.53
2023-12-30T14:25:56.190Z,66.40
2023-12-30T14:28:26.387Z,66.76
2023-12-30T14:30:56.932Z,66.56
2023-12-30T14:33:27.183Z,66.58
2023-12-30T14:35:57.560Z,66.83
2023-12-30T14:38:27.537Z,66.53
2023-12-30T14:40:58.272Z,66.81
2023-12-30T14:43:28.351Z,66.51
2023-12-30T14:45:59.040Z,66.35
2023-12-30T14:48:29.240Z,66.63
2023-12-30T14:50:59.958Z,66.77
2023-12-30T14:53:30.026Z,66.54
2023-12-30T14:56:00.269Z,66.64
2023-12-30T14:58:30.319Z,66.45
2023-12-30T15:01:00.804Z,66.45
2023-12-30T15:03:31.121Z,66.50
2023-12-30T15:06:01.577Z,66.55
2023-12-30T15:08:33.981Z,66.44
2023-12-30T15:11:04.802Z,66.48
2023-12-30T15:13:35.013Z,66.60
2023-12-30T15:16:05.472Z,66.11
2023-12-30T15:18:35.742Z,66.54
2023-12-30T15:21:06.682Z,66.21
2023-12-30T15:23:37.039Z,66.07
2023-12-30T15:26:08.362Z,66.15
2023-12-30T15:28:38.494Z,66.24
2023-12-30T15:31:09.162Z,66.84
2023-12-30T15:33:39.593Z,66.76
2023-12-30T15:36:10.922Z,67.00
2023-12-30T15:38:41.230Z,67.03
2023-12-30T15:41:12.411Z,66.79
2023-12-30T15:43:42.912Z,66.57
2023-12-30T15:46:13.385Z,66.88
2023-12-30T15:48:43.620Z,66.72
2023-12-30T15:51:14.146Z,66.54
2023-12-30T15:53:45.977Z,66.73
2023-12-30T15:56:16.551Z,66.81
2023-12-30T15:58:46.931Z,67.03
2023-12-30T16:01:17.518Z,67.09
2023-12-30T16:03:47.673Z,66.95
2023-12-30T16:06:18.221Z,67.18
2023-12-30T16:08:48.524Z,67.12
2023-12-30T16:11:18.836Z,67.39
2023-12-30T16:13:49.033Z,68.13
2023-12-30T16:16:19.514Z,71.79
2023-12-30T16:18:50.052Z,70.71
2023-12-30T16:21:20.571Z,69.59
2023-12-30T16:23:50.930Z,70.04
2023-12-30T16:26:23.868Z,69.99
2023-12-30T16:28:54.720Z,69.00
2023-12-30T16:31:25.475Z,69.03
2023-12-30T16:33:55.825Z,71.10
2023-12-30T16:36:26.727Z,70.66
2023-12-30T16:38:57.612Z,70.53
2023-12-30T16:41:27.983Z,70.48
2023-12-30T16:43:58.868Z,70.30
2023-12-30T16:46:29.867Z,70.08
2023-12-30T16:49:00.845Z,69.89
2023-12-30T16:51:32.525Z,69.17
2023-12-30T16:54:03.596Z,69.19
2023-12-30T16:56:34.276Z,69.03
2023-12-30T16:59:04.303Z,69.03
2023-12-30T17:01:35.959Z,68.83
2023-12-30T17:04:06.026Z,69.03
2023-12-30T17:06:36.510Z,69.25
2023-12-30T17:09:06.584Z,69.23
2023-12-30T17:11:40.815Z,68.82
2023-12-30T17:14:11.131Z,68.79
2023-12-30T17:16:41.724Z,68.56
2023-12-30T17:19:12.300Z,68.55
2023-12-30T17:21:42.793Z,68.50
2023-12-30T17:24:13.130Z,68.59
2023-12-30T17:26:43.699Z,69.10
2023-12-30T17:29:14.114Z,68.97
2023-12-30T17:31:44.503Z,68.96
2023-12-30T17:34:14.603Z,69.25
2023-12-30T17:36:45.058Z,69.20
2023-12-30T17:39:15.801Z,68.96
2023-12-30T17:41:46.105Z,68.94
2023-12-30T17:44:16.505Z,68.69
2023-12-30T17:46:46.931Z,68.34
2023-12-30T17:49:17.157Z,68.24
2023-12-30T17:51:47.553Z,68.24
2023-12-30T17:54:17.966Z,68.62
2023-12-30T17:56:48.479Z,68.67
2023-12-30T17:59:18.600Z,68.21
2023-12-30T18:01:49.196Z,67.91
2023-12-30T18:04:19.333Z,67.95
2023-12-30T18:06:49.682Z,68.00
2023-12-30T18:09:19.892Z,67.84
2023-12-30T18:11:50.436Z,67.62
2023-12-30T18:14:23.159Z,67.62
2023-12-30T18:16:53.504Z,67.53
2023-12-30T18:19:23.869Z,67.56
2023-12-30T18:21:59.828Z,67.79
2023-12-30T18:24:30.082Z,67.61
2023-12-30T18:27:01.940Z,67.64
2023-12-30T18:29:32.453Z,67.65
2023-12-30T18:32:03.223Z,67.83
2023-12-30T18:34:35.630Z,67.36
2023-12-30T18:37:08.368Z,67.43
2023-12-30T18:39:38.502Z,67.32
2023-12-30T18:42:09.734Z,67.00
2023-12-30T18:44:40.983Z,67.21
2023-12-30T18:47:11.387Z,67.22
2023-12-30T18:49:41.888Z,67.05
2023-12-30T18:52:12.892Z,66.93
2023-12-30T18:54:42.874Z,66.89
2023-12-30T18:57:13.256Z,66.92
2023-12-30T18:59:43.637Z,66.73
2023-12-30T19:02:13.969Z,66.61
2023-12-30T19:04:45.096Z,66.79
2023-12-30T19:07:15.558Z,66.75
2023-12-30T19:09:45.717Z,66.80
2023-12-30T19:12:16.265Z,66.49
2023-12-30T19:14:46.454Z,66.53
2023-12-30T19:17:17.038Z,66.43
2023-12-30T19:19:47.075Z,66.29
2023-12-30T19:22:17.425Z,66.84
2023-12-30T19:24:47.561Z,66.77
2023-12-30T19:27:18.135Z,66.83
2023-12-30T19:29:48.300Z,66.90
2023-12-30T19:32:18.434Z,66.57
2023-12-30T19:34:49.301Z,66.44
2023-12-30T19:37:19.900Z,66.44
2023-12-30T19:39:51.156Z,66.38
2023-12-30T19:42:21.650Z,66.54
2023-12-30T19:44:51.931Z,66.59
2023-12-30T19:47:22.223Z,66.50
2023-12-30T19:49:52.314Z,66.28
2023-12-30T19:52:22.908Z,66.30
2023-12-30T19:54:53.159Z,66.62
2023-12-30T19:57:25.852Z,66.30
2023-12-30T19:59:55.965Z,66.35
2023-12-30T20:02:26.422Z,66.58
2023-12-30T20:04:57.109Z,66.86
2023-12-30T20:07:28.086Z,66.99
2023-12-30T20:09:58.115Z,67.12
2023-12-30T20:12:29.729Z,67.13
2023-12-30T20:14:59.956Z,67.10
2023-12-30T20:17:30.332Z,67.08
2023-12-30T20:20:03.037Z,67.15
2023-12-30T20:22:34.345Z,67.00
2023-12-30T20:25:05.770Z,67.04
2023-12-30T20:27:37.292Z,67.40
2023-12-30T20:30:08.527Z,67.71
2023-12-30T20:32:39.063Z,67.85
2023-12-30T20:35:09.319Z,67.66
2023-12-30T20:37:40.016Z,67.65
2023-12-30T20:40:11.274Z,67.41
2023-12-30T20:42:41.563Z,67.81
2023-12-30T20:45:14.404Z,67.44
2023-12-30T20:47:45.012Z,67.53
2023-12-30T20:50:15.101Z,67.47
2023-12-30T20:52:45.620Z,67.51
2023-12-30T20:55:16.781Z,67.42
2023-12-30T20:57:49.609Z,67.26
2023-12-30T21:00:23.429Z,67.20
2023-12-30T21:02:54.007Z,67.01
2023-12-30T21:05:24.179Z,66.82
2023-12-30T21:07:57.384Z,66.90
2023-12-30T21:10:27.524Z,66.96
2023-12-30T21:12:58.195Z,66.94
2023-12-30T21:15:28.378Z,66.89
2023-12-30T21:17:58.859Z,66.77
2023-12-30T21:20:29.050Z,67.07
2023-12-30T21:22:59.535Z,67.01
2023-12-30T21:25:29.959Z,66.77
2023-12-30T21:28:00.421Z,66.79
2023-12-30T21:30:30.621Z,66.73
2023-12-30T21:33:01.292Z,66.58
2023-12-30T21:35:31.562Z,66.49
2023-12-30T21:38:02.357Z,66.70
2023-12-30T21:40:32.793Z,66.63
2023-12-30T21:43:03.451Z,66.71
2023-12-30T21:45:33.726Z,66.67
2023-12-30T21:48:05.300Z,66.56
2023-12-30T21:50:35.511Z,66.46
2023-12-30T21:53:06.118Z,66.49
2023-12-30T21:55:36.394Z,66.60
2023-12-30T21:58:06.599Z,66.57
2023-12-30T22:00:39.373Z,66.41
2023-12-30T22:03:11.294Z,66.62
2023-12-30T22:05:42.386Z,66.44
2023-12-30T22:08:14.700Z,66.30
2023-12-30T22:10:45.060Z,66.33
2023-12-30T22:13:15.863Z,66.03
2023-12-30T22:15:45.790Z,66.18
2023-12-30T22:18:16.343Z,66.15
2023-12-30T22:20:46.643Z,66.19
2023-12-30T22:23:19.298Z,66.32
2023-12-30T22:25:50.137Z,66.34
2023-12-30T22:28:20.527Z,66.20
2023-12-30T22:30:50.542Z,66.41
2023-12-30T22:33:21.023Z,66.40
2023-12-30T22:35:51.204Z,66.16
2023-12-30T22:38:21.377Z,66.18
2023-12-30T22:40:51.596Z,66.08
2023-12-30T22:43:22.013Z,66.22
2023-12-30T22:45:52.643Z,66.19
2023-12-30T22:48:23.277Z,66.08
2023-12-30T22:50:53.665Z,66.14
2023-12-30T22:53:24.056Z,66.18
2023-12-30T22:55:54.306Z,66.42
2023-12-30T22:58:24.806Z,66.35
2023-12-30T23:00:55.098Z,66.35
2023-12-30T23:03:25.616Z,66.13
2023-12-30T23:05:56.964Z,65.88
2023-12-30T23:08:27.454Z,65.62
2023-12-30T23:10:57.622Z,65.86
2023-12-30T23:13:27.872Z,65.89
2023-12-30T23:15:58.239Z,66.10
2023-12-30T23:18:28.575Z,66.19
2023-12-30T23:20:58.656Z,66.03
2023-12-30T23:23:29.115Z,65.93
2023-12-30T23:25:59.565Z,65.75
2023-12-30T23:28:29.925Z,65.94
2023-12-30T23:31:00.256Z,65.96
2023-12-30T23:33:30.487Z,65.96
2023-12-30T23:36:03.528Z,65.84
2023-12-30T23:38:33.754Z,65.84
2023-12-30T23:41:04.379Z,65.77
2023-12-30T23:43:34.870Z,65.82
2023-12-30T23:46:05.103Z,65.76
2023-12-30T23:48:35.529Z,65.71
2023-12-30T23:51:05.671Z,65.89
2023-12-30T23:53:37.457Z,65.63
2023-12-30T23:56:07.666Z,65.57
2023-12-30T23:58:38.482Z,65.66
